createdAt,value
2023-03-22T00:01:54.787Z,100281.77
2023-03-22T00:05:22.657Z,100280.63
2023-03-22T00:08:50.529Z,100272.15
2023-03-22T00:11:59.443Z,100266.70
2023-03-22T00:15:08.574Z,100270.30
2023-03-22T00:18:36.303Z,100264.96
2023-03-22T00:22:04.193Z,100260.30
2023-03-22T00:25:12.671Z,100264.98
2023-03-22T00:28:40.744Z,100267.00
2023-03-22T00:32:08.732Z,100272.48
2023-03-22T00:34:58.360Z,100268.79
2023-03-22T00:38:39.698Z,100267.05
2023-03-22T00:41:29.262Z,100259.79
2023-03-22T00:44:57.116Z,100260.06
2023-03-22T00:47:53.125Z,100254.75
2023-03-22T00:51:04.981Z,100244.95
2023-03-22T00:54:32.956Z,100240.11
2023-03-22T00:57:41.247Z,100234.30
2023-03-22T01:01:09.161Z,100238.60
2023-03-22T01:04:36.710Z,100234.42
2023-03-22T01:07:45.427Z,100230.98
2023-03-22T01:11:13.415Z,100229.34
2023-03-22T01:14:41.273Z,100222.10
2023-03-22T01:18:09.370Z,100220.65
2023-03-22T01:21:37.181Z,100218.16
2023-03-22T01:25:04.951Z,100215.33
2023-03-22T01:28:03.065Z,100215.75
2023-03-22T01:31:30.931Z,100215.11
2023-03-22T01:34:39.775Z,100214.78
2023-03-22T01:37:29.028Z,100213.84
2023-03-22T01:40:56.867Z,100218.20
2023-03-22T01:44:24.696Z,100217.32
2023-03-22T01:47:15.944Z,100216.26
2023-03-22T01:50:43.683Z,100221.47
2023-03-22T01:54:11.648Z,100215.46
2023-03-22T01:57:19.633Z,100222.20
2023-03-22T02:00:28.412Z,100218.30
2023-03-22T02:03:37.698Z,100218.02
2023-03-22T02:07:05.624Z,100219.40
2023-03-22T02:10:14.565Z,100223.70
2023-03-22T02:13:26.558Z,100228.31
2023-03-22T02:16:57.012Z,100226.73
2023-03-22T02:20:04.976Z,100228.88
2023-03-22T02:23:32.894Z,100231.20
2023-03-22T02:27:00.871Z,100230.52
2023-03-22T02:29:49.533Z,100223.23
2023-03-22T02:33:17.366Z,100227.40
2023-03-22T02:36:45.316Z,100228.27
2023-03-22T02:39:34.365Z,100226.94
2023-03-22T02:42:07.278Z,100226.74
2023-03-22T02:45:35.083Z,100227.02
2023-03-22T02:48:44.113Z,100227.39
2023-03-22T02:52:11.742Z,100227.08
2023-03-22T02:55:39.624Z,100229.05
2023-03-22T02:59:07.360Z,100227.46
2023-03-22T03:02:15.748Z,100233.55
2023-03-22T03:05:43.793Z,100237.98
2023-03-22T03:09:11.837Z,100238.98
2023-03-22T03:12:28.949Z,100244.13
2023-03-22T03:15:56.716Z,100252.74
2023-03-22T03:18:54.949Z,100262.15
2023-03-22T03:22:22.820Z,100265.89
2023-03-22T03:25:31.866Z,100264.77
2023-03-22T03:28:41.737Z,100261.70
2023-03-22T03:32:09.552Z,100261.80
2023-03-22T03:35:17.451Z,100258.95
2023-03-22T03:38:45.389Z,100262.23
2023-03-22T03:42:13.390Z,100257.92
2023-03-22T03:45:41.417Z,100255.54
2023-03-22T03:49:09.199Z,100254.44
2023-03-22T03:52:18.337Z,100258.96
2023-03-22T03:55:46.191Z,100263.89
2023-03-22T03:59:14.130Z,100264.40
2023-03-22T04:02:42.067Z,100264.38
2023-03-22T04:05:54.373Z,100267.09
2023-03-22T04:09:22.264Z,100269.51
2023-03-22T04:12:13.418Z,100269.63
2023-03-22T04:15:41.281Z,100264.61
2023-03-22T04:19:08.913Z,100272.44
2023-03-22T04:22:01.820Z,100276.59
2023-03-22T04:25:10.358Z,100278.36
2023-03-22T04:28:38.217Z,100274.75
2023-03-22T04:31:36.252Z,100277.02
2023-03-22T04:35:03.992Z,100280.77
2023-03-22T04:38:31.678Z,100277.33
2023-03-22T04:41:59.495Z,100279.63
2023-03-22T04:45:27.414Z,100280.41
2023-03-22T04:48:55.589Z,100282.86
2023-03-22T04:52:23.517Z,100284.35
2023-03-22T04:55:51.198Z,100286.60
2023-03-22T04:59:00.673Z,100284.20
2023-03-22T05:02:28.837Z,100290.29
2023-03-22T05:05:55.200Z,100294.75
2023-03-22T05:09:04.352Z,100295.58
2023-03-22T05:12:32.779Z,100299.39
2023-03-22T05:15:47.958Z,100304.16
2023-03-22T05:19:15.884Z,100307.15
2023-03-22T05:22:23.816Z,100316.64
2023-03-22T05:25:35.462Z,100321.91
2023-03-22T05:28:40.813Z,100319.98
2023-03-22T05:31:52.844Z,100323.67
2023-03-22T05:35:20.691Z,100335.02
2023-03-22T05:38:14.215Z,100333.18
2023-03-22T05:41:42.222Z,100338.92
2023-03-22T05:45:10.234Z,100347.38
2023-03-22T05:48:16.470Z,100355.23
2023-03-22T05:51:44.514Z,100362.28
2023-03-22T05:55:12.396Z,100360.48
2023-03-22T05:58:41.132Z,100369.98
2023-03-22T06:02:09.180Z,100369.85
2023-03-22T06:05:36.876Z,100375.20
2023-03-22T06:09:16.340Z,100379.92
2023-03-22T06:12:32.465Z,100379.23
2023-03-22T06:15:42.180Z,100380.02
2023-03-22T06:19:10.005Z,100386.16
2023-03-22T06:22:37.671Z,100392.91
2023-03-22T06:25:45.817Z,100396.61
2023-03-22T06:28:36.925Z,100401.29
2023-03-22T06:31:45.574Z,100407.89
2023-03-22T06:35:13.367Z,100408.54
2023-03-22T06:38:22.717Z,100409.10
2023-03-22T06:41:31.474Z,100404.84
2023-03-22T06:44:38.085Z,100409.80
2023-03-22T06:48:06.184Z,100411.04
2023-03-22T06:51:49.025Z,100415.93
2023-03-22T06:54:38.244Z,100413.88
2023-03-22T06:58:06.183Z,100416.42
2023-03-22T07:01:34.337Z,100417.27
2023-03-22T07:05:02.378Z,100420.48
2023-03-22T07:08:30.235Z,100424.55
2023-03-22T07:11:36.660Z,100426.30
2023-03-22T07:15:04.409Z,100425.80
2023-03-22T07:18:41.627Z,100426.59
2023-03-22T07:21:51.821Z,100424.92
2023-03-22T07:24:53.891Z,100430.30
2023-03-22T07:27:53.669Z,100426.94
2023-03-22T07:31:23.755Z,100427.42
2023-03-22T07:34:51.487Z,100428.88
2023-03-22T07:38:01.090Z,100430.05
2023-03-22T07:41:29.233Z,100434.31
2023-03-22T07:44:46.460Z,100438.86
2023-03-22T07:48:03.556Z,100440.00
2023-03-22T07:51:31.402Z,100443.57
2023-03-22T07:54:59.363Z,100447.31
2023-03-22T07:58:08.081Z,100444.13
2023-03-22T08:01:35.819Z,100441.40
2023-03-22T08:04:43.927Z,100445.14
2023-03-22T08:07:50.028Z,100446.15
2023-03-22T08:10:58.495Z,100446.04
2023-03-22T08:14:07.120Z,100444.80
2023-03-22T08:17:31.093Z,100447.11
2023-03-22T08:20:47.066Z,100443.81
2023-03-22T08:24:17.880Z,100444.13
2023-03-22T08:27:45.829Z,100449.87
2023-03-22T08:30:54.871Z,100450.30
2023-03-22T08:34:06.574Z,100450.90
2023-03-22T08:36:54.905Z,100452.94
2023-03-22T08:40:19.007Z,100457.20
2023-03-22T08:42:59.646Z,100462.16
2023-03-22T08:45:33.573Z,100460.70
2023-03-22T08:48:28.498Z,100460.41
2023-03-22T08:51:42.460Z,100464.79
2023-03-22T08:55:10.809Z,100463.40
2023-03-22T08:58:28.633Z,100463.92
2023-03-22T09:01:57.207Z,100462.45
2023-03-22T09:05:25.275Z,100462.05
2023-03-22T09:08:53.288Z,100460.14
2023-03-22T09:12:21.315Z,100464.12
2023-03-22T09:15:49.798Z,100465.91
2023-03-22T09:19:17.698Z,100458.68
2023-03-22T09:22:08.588Z,100457.73
2023-03-22T09:25:36.625Z,100460.28
2023-03-22T09:29:05.125Z,100455.48
2023-03-22T09:32:17.054Z,100455.20
2023-03-22T09:35:28.155Z,100455.96
2023-03-22T09:38:40.372Z,100449.94
2023-03-22T09:41:29.311Z,100450.16
2023-03-22T09:44:57.722Z,100449.92
2023-03-22T09:47:48.017Z,100448.47
2023-03-22T09:50:51.701Z,100444.30
2023-03-22T09:54:20.881Z,100444.56
2023-03-22T09:57:09.944Z,100442.96
2023-03-22T09:59:58.087Z,100442.41
2023-03-22T10:03:26.092Z,100438.73
2023-03-22T10:06:16.353Z,100435.96
2023-03-22T10:09:28.213Z,100437.34
2023-03-22T10:12:38.487Z,100438.48
2023-03-22T10:15:22.604Z,100439.95
2023-03-22T10:18:30.670Z,100440.50
2023-03-22T10:21:15.349Z,100439.14
2023-03-22T10:24:38.613Z,100439.78
2023-03-22T10:27:30.400Z,100431.99
2023-03-22T10:30:47.384Z,100437.86
2023-03-22T10:33:36.753Z,100430.42
2023-03-22T10:36:42.488Z,100431.11
2023-03-22T10:39:39.367Z,100434.01
2023-03-22T10:43:05.787Z,100432.55
2023-03-22T10:46:22.288Z,100436.42
2023-03-22T10:49:30.705Z,100431.27
2023-03-22T10:52:19.540Z,100428.24
2023-03-22T10:55:10.144Z,100421.98
2023-03-22T10:58:17.535Z,100423.14
2023-03-22T11:00:48.764Z,100422.23
2023-03-22T11:03:38.247Z,100419.27
2023-03-22T11:06:27.699Z,100419.73
2023-03-22T11:09:52.633Z,100417.00
2023-03-22T11:12:41.740Z,100414.57
2023-03-22T11:15:45.105Z,100411.69
2023-03-22T11:18:29.089Z,100400.22
2023-03-22T11:21:21.342Z,100399.02
2023-03-22T11:24:10.153Z,100396.86
2023-03-22T11:27:06.887Z,100396.64
2023-03-22T11:29:58.043Z,100391.50
2023-03-22T11:32:46.206Z,100386.75
2023-03-22T11:35:15.538Z,100383.70
2023-03-22T11:38:25.791Z,100379.06
2023-03-22T11:41:35.788Z,100373.91
2023-03-22T11:44:28.238Z,100370.83
2023-03-22T11:47:20.484Z,100372.83
2023-03-22T11:50:10.515Z,100365.92
2023-03-22T11:53:18.028Z,100362.39
2023-03-22T11:55:47.614Z,100363.23
2023-03-22T11:58:37.556Z,100365.94
2023-03-22T12:01:30.261Z,100362.83
2023-03-22T12:04:00.517Z,100363.20
2023-03-22T12:06:50.409Z,100358.98
2023-03-22T12:10:06.650Z,100360.20
2023-03-22T12:12:46.682Z,100361.38
2023-03-22T12:15:19.267Z,100363.04
2023-03-22T12:18:08.501Z,100357.10
2023-03-22T12:20:57.603Z,100352.09
2023-03-22T12:24:21.590Z,100349.98
2023-03-22T12:27:30.195Z,100351.09
2023-03-22T12:30:43.608Z,100349.72
2023-03-22T12:33:33.427Z,100352.92
2023-03-22T12:36:05.367Z,100349.30
2023-03-22T12:38:50.214Z,100351.39
2023-03-22T12:41:19.275Z,100349.10
2023-03-22T12:44:29.107Z,100343.63
2023-03-22T12:47:00.319Z,100339.69
2023-03-22T12:49:49.949Z,100337.20
2023-03-22T12:52:45.759Z,100328.77
2023-03-22T12:55:53.891Z,100332.48
2023-03-22T12:58:53.540Z,100333.17
2023-03-22T13:01:46.360Z,100329.20
2023-03-22T13:04:17.272Z,100326.52
2023-03-22T13:06:49.879Z,100324.44
2023-03-22T13:09:38.824Z,100323.48
2023-03-22T13:12:07.491Z,100316.70
2023-03-22T13:14:36.178Z,100317.90
2023-03-22T13:17:35.626Z,100320.09
2023-03-22T13:20:24.465Z,100317.39
2023-03-22T13:23:13.970Z,100317.57
2023-03-22T13:25:43.441Z,100321.74
2023-03-22T13:28:32.055Z,100317.26
2023-03-22T13:31:01.505Z,100314.66
2023-03-22T13:33:34.801Z,100308.86
2023-03-22T13:36:21.471Z,100308.49
2023-03-22T13:39:25.149Z,100307.60
2023-03-22T13:41:55.573Z,100301.36
2023-03-22T13:44:58.756Z,100297.77
2023-03-22T13:47:56.780Z,100288.93
2023-03-22T13:50:26.566Z,100289.98
2023-03-22T13:52:56.507Z,100284.75
2023-03-22T13:55:34.646Z,100285.67
2023-03-22T13:58:22.619Z,100291.44
2023-03-22T14:01:07.397Z,100288.74
2023-03-22T14:04:00.909Z,100291.85
2023-03-22T14:07:07.250Z,100282.48
2023-03-22T14:10:12.233Z,100287.85
2023-03-22T14:13:22.955Z,100287.45
2023-03-22T14:16:12.909Z,100285.53
2023-03-22T14:19:23.106Z,100286.25
